Tuesday, September 25, 2018, 10:56 PM GMT
Back to Local

CWER, Ile D'Orleans Automated Reporting Station

Location: , , Canada Lat: 47
Local Time: 10:56 PM GMT (22:56 GMT) Lon: -70.817
Time Zone: GMT Elev: 16 ft

Show me the last for .
Show Coded

Time T Td Feel RH Dir Speed Gust Alt SLP Vis Weather Sky Remarks
2018-09-25 22:00 - - - 0 320° 7 - - - 0 None
2018-09-25 21:00 - - - 0 310° 5 - - - 0 None
2018-09-25 20:00 - - - 0 230° 12 - - - 0 Peak wind: 25 mph (22 kts) from 210° at 42 min
2018-09-25 19:00 - - - 0 190° 16 - - - 0 Peak wind: 19 mph (17 kts) from 190° at 54 min
2018-09-25 18:00 - - - 0 230° 1 - - - 0 None
2018-09-25 17:00 - - - 0 70° 2 - - - 0 None
2018-09-25 16:00 - - - 0 50° 6 - - - 0 None
2018-09-25 15:00 - - - 0 40° 3 - - - 0 None
2018-09-25 14:00 - - - 0 40° 2 - - - 0 None
2018-09-25 13:00 - - - 0 10° 6 - - - 0 None
2018-09-25 12:00 - - - 0 310° 5 - - - 0 None
2018-09-25 11:00 - - - 0 330° 6 - - - 0 None
2018-09-25 10:00 - - - 0 350° 8 - - - 0 None
2018-09-25 09:00 - - - 0 340° 6 - - - 0 None
2018-09-25 08:00 - - - 0 340° 6 - - - 0 None
2018-09-25 07:00 - - - 0 320° 6 - - - 0 None
2018-09-25 06:00 - - - 0 320° 5 - - - 0 None
2018-09-25 05:00 - - - 0 330° 10 - - - 0 None
2018-09-25 04:00 - - - 0 330° 7 - - - 0 None
2018-09-25 03:00 - - - 0 80° 9 - - - 0 Peak wind: 20 mph (18 kts) from 60° at 36 min
2018-09-25 02:00 - - - 0 50° 16 - - - 0 Peak wind: 19 mph (17 kts) from 60° at 40 min
2018-09-25 01:00 - - - 0 40° 13 - - - 0 None
2018-09-25 00:00 - - - 0 60° 13 - - - 0 None
2018-09-24 23:00 - - - 0 70° 12 - - - 0 None

Support USWX by starting your Amazon purchase here.